Time;durP1;ratioP1;P1;durP2;ratioP2;P2;SDS_P1;SDS_P2;PMS_P1;PMS_P2;Temp;Humidity;BMP_temperature;BMP_pressure;BME280_temperature;BME280_humidity;BME280_pressure;Samples;Min_cycle;Max_cycle;Signal;HPM_P1;HPM_P2
2022/08/28 00:01:06;;;;;;;61.08;49.92;;;24.90;53.60;;;;;;4927548;28;90771;-58
2022/08/28 00:03:32;;;;;;;61.72;50.05;;;24.90;53.60;;;;;;4932909;28;92355;-58
2022/08/28 00:05:59;;;;;;;60.33;50.05;;;24.90;53.60;;;;;;4933021;28;90432;-58
2022/08/28 00:08:25;;;;;;;60.17;50.13;;;24.90;53.60;;;;;;4926987;28;89720;-57
2022/08/28 00:10:52;;;;;;;60.80;50.08;;;24.90;53.60;;;;;;4930724;28;89649;-58
2022/08/28 00:13:21;;;;;;;60.85;50.13;;;24.90;53.60;;;;;;4927617;28;90214;-55
2022/08/28 00:15:50;;;;;;;62.08;50.10;;;24.90;53.50;;;;;;4929962;28;89899;-58
2022/08/28 00:18:16;;;;;;;60.20;49.88;;;24.90;53.50;;;;;;4928823;28;91533;-57
2022/08/28 00:20:43;;;;;;;61.92;50.25;;;24.90;53.60;;;;;;4932465;28;92460;-57
2022/08/28 00:23:09;;;;;;;62.40;50.13;;;24.90;53.50;;;;;;4930570;28;91410;-57
2022/08/28 00:25:35;;;;;;;60.20;50.05;;;24.90;53.60;;;;;;4937768;28;89598;-58
2022/08/28 00:28:05;;;;;;;60.25;49.97;;;24.90;53.60;;;;;;4930597;28;89863;-56
2022/08/28 00:30:45;;;;;;;60.22;50.13;;;24.90;53.60;;;;;;4925064;28;91001;-56
2022/08/28 00:33:23;;;;;;;60.67;50.08;;;24.90;53.70;;;;;;4925463;28;90285;-58
2022/08/28 00:35:49;;;;;;;60.22;50.03;;;24.90;53.70;;;;;;4932581;28;88849;-57
2022/08/28 00:38:18;;;;;;;61.20;50.15;;;24.90;53.70;;;;;;4934863;28;90353;-57
2022/08/28 00:40:49;;;;;;;60.95;50.22;;;24.90;53.70;;;;;;4925734;28;93250;-58
2022/08/28 00:43:25;;;;;;;60.63;49.95;;;24.90;53.60;;;;;;4929933;28;96062;-55
2022/08/28 00:45:51;;;;;;;60.85;49.95;;;24.90;53.70;;;;;;4936938;28;90159;-58
2022/08/28 00:48:16;;;;;;;60.20;50.00;;;24.80;53.80;;;;;;4930741;28;89481;-56
2022/08/28 00:53:30;;;;;;;59.92;50.22;;;24.80;53.80;;;;;;4919270;28;90393;-57
2022/08/28 00:55:57;;;;;;;60.03;50.15;;;24.80;53.80;;;;;;4913624;28;92932;-57
2022/08/28 00:58:22;;;;;;;60.65;50.17;;;24.80;53.80;;;;;;4931421;28;90293;-53
2022/08/28 01:00:48;;;;;;;60.65;50.08;;;24.80;54.00;;;;;;4938621;28;89696;-58
2022/08/28 01:03:14;;;;;;;60.50;50.22;;;24.80;54.00;;;;;;4928761;28;90468;-58
2022/08/28 01:05:43;;;;;;;60.55;50.30;;;24.70;54.00;;;;;;4920195;28;91797;-58
2022/08/28 01:08:08;;;;;;;60.65;50.58;;;24.70;54.00;;;;;;4918872;28;93693;-57
2022/08/28 01:10:34;;;;;;;60.17;50.13;;;24.70;54.00;;;;;;4919771;28;90973;-55
2022/08/28 01:13:01;;;;;;;60.80;49.97;;;24.70;54.00;;;;;;4933376;28;90180;-57
2022/08/28 01:15:31;;;;;;;60.53;49.95;;;24.70;54.00;;;;;;4932644;28;92011;-56
2022/08/28 01:18:00;;;;;;;61.17;50.10;;;24.70;54.00;;;;;;4933405;28;91208;-57
2022/08/28 01:20:29;;;;;;;60.08;50.22;;;24.70;54.10;;;;;;4922225;28;89826;-58
2022/08/28 01:23:04;;;;;;;61.45;50.30;;;24.70;54.10;;;;;;4929034;28;92426;-57
2022/08/28 01:25:33;;;;;;;61.15;50.25;;;24.70;54.10;;;;;;4922589;28;89758;-58
2022/08/28 01:28:04;;;;;;;60.65;50.35;;;24.70;54.10;;;;;;4919625;28;91277;-56
2022/08/28 01:30:31;;;;;;;60.25;49.95;;;24.70;54.00;;;;;;4932067;28;91189;-58
2022/08/28 01:32:57;;;;;;;61.00;50.10;;;24.70;54.00;;;;;;4929732;28;90509;-56
2022/08/28 01:35:26;;;;;;;60.17;50.22;;;24.70;54.00;;;;;;4926819;28;89784;-57
2022/08/28 01:37:54;;;;;;;60.47;50.00;;;24.80;54.00;;;;;;4927759;28;89983;-57
2022/08/28 01:40:28;;;;;;;60.22;49.92;;;24.80;53.90;;;;;;4925409;28;90629;-56
2022/08/28 01:42:54;;;;;;;61.03;49.95;;;24.80;53.90;;;;;;4931152;28;90602;-58
2022/08/28 01:45:22;;;;;;;60.22;49.95;;;24.80;53.90;;;;;;4924670;28;90545;-58
2022/08/28 01:47:48;;;;;;;60.35;50.00;;;24.80;54.00;;;;;;4914653;28;90780;-56
2022/08/28 01:50:18;;;;;;;59.83;50.03;;;24.70;54.00;;;;;;4908662;28;92066;-56
2022/08/28 01:52:43;;;;;;;60.10;50.13;;;24.80;53.90;;;;;;4912418;28;89409;-58
2022/08/28 01:55:10;;;;;;;60.70;50.05;;;24.70;54.00;;;;;;4916126;28;89922;-57
2022/08/28 01:57:42;;;;;;;60.55;50.35;;;24.70;54.10;;;;;;4911795;28;92042;-58
2022/08/28 02:00:09;;;;;;;60.83;50.15;;;24.70;54.10;;;;;;4924921;28;91028;-58
2022/08/28 02:02:35;;;;;;;62.60;50.05;;;24.70;54.10;;;;;;4918591;28;91693;-58
2022/08/28 02:05:01;;;;;;;61.70;50.20;;;24.70;54.10;;;;;;4917927;28;89875;-58
2022/08/28 02:07:27;;;;;;;62.28;50.05;;;24.70;54.00;;;;;;4925544;28;91117;-59
2022/08/28 02:09:52;;;;;;;60.35;50.15;;;24.70;54.00;;;;;;4923060;28;90036;-57
2022/08/28 02:12:19;;;;;;;60.33;50.13;;;24.70;54.10;;;;;;4931093;28;89717;-58
2022/08/28 02:14:45;;;;;;;61.70;50.17;;;24.70;54.00;;;;;;4928330;28;93490;-58
2022/08/28 02:17:10;;;;;;;59.45;49.85;;;24.70;54.00;;;;;;4923893;28;94429;-57
2022/08/28 02:19:36;;;;;;;61.65;50.35;;;24.70;54.10;;;;;;4917356;28;90300;-57
2022/08/28 02:22:07;;;;;;;59.80;49.97;;;24.70;54.10;;;;;;4927792;28;90642;-58
2022/08/28 02:24:33;;;;;;;62.37;50.30;;;24.70;54.10;;;;;;4922171;28;91301;-58
2022/08/28 02:27:01;;;;;;;60.30;50.15;;;24.70;54.10;;;;;;4923911;28;94332;-59
2022/08/28 02:29:26;;;;;;;61.35;50.05;;;24.70;54.10;;;;;;4922751;28;89852;-57
2022/08/28 02:31:52;;;;;;;60.42;50.40;;;24.70;54.10;;;;;;4921883;28;90970;-59
2022/08/28 02:34:18;;;;;;;62.65;50.25;;;24.70;54.10;;;;;;4927424;28;90676;-58
2022/08/28 02:36:43;;;;;;;61.08;50.10;;;24.70;54.10;;;;;;4929088;28;90122;-58
2022/08/28 02:39:09;;;;;;;60.85;50.28;;;24.70;54.00;;;;;;4928754;28;91529;-59
2022/08/28 02:41:35;;;;;;;60.55;50.25;;;24.70;54.00;;;;;;4909008;28;90140;-59
2022/08/28 02:44:02;;;;;;;60.17;50.47;;;24.70;54.00;;;;;;4924251;28;90147;-55
2022/08/28 02:46:27;;;;;;;60.17;50.40;;;24.70;54.00;;;;;;4927223;28;93749;-59
2022/08/28 02:48:53;;;;;;;59.83;50.08;;;24.70;54.00;;;;;;4924202;28;92015;-58
2022/08/28 02:51:19;;;;;;;61.40;50.35;;;24.60;54.10;;;;;;4912849;28;90750;-56
2022/08/28 02:53:45;;;;;;;60.13;50.08;;;24.60;54.10;;;;;;4919426;28;92156;-59
2022/08/28 02:56:11;;;;;;;60.13;50.00;;;24.70;54.20;;;;;;4926498;28;91592;-59
2022/08/28 02:58:39;;;;;;;60.63;50.03;;;24.60;54.10;;;;;;4921573;28;90725;-59
2022/08/28 03:01:08;;;;;;;62.22;50.35;;;24.60;54.10;;;;;;4918031;28;94050;-59
2022/08/28 03:03:34;;;;;;;60.13;49.95;;;24.60;54.10;;;;;;4920841;28;91361;-59
2022/08/28 03:06:01;;;;;;;60.28;50.05;;;24.70;54.10;;;;;;4917291;28;91381;-58
2022/08/28 03:08:28;;;;;;;61.30;50.25;;;24.60;54.20;;;;;;4922251;28;89993;-59
2022/08/28 03:10:53;;;;;;;60.55;50.25;;;24.60;54.20;;;;;;4919931;28;91592;-57
2022/08/28 03:13:19;;;;;;;61.13;50.15;;;24.60;54.10;;;;;;4925742;28;89858;-59
2022/08/28 03:15:46;;;;;;;62.33;50.05;;;24.60;54.20;;;;;;4920939;28;90864;-59
2022/08/28 03:18:12;;;;;;;61.30;50.22;;;24.60;54.10;;;;;;4915539;28;91482;-59
2022/08/28 03:20:39;;;;;;;59.70;49.92;;;24.60;54.10;;;;;;4916704;28;92641;-59
2022/08/28 03:25:50;;;;;;;60.28;49.97;;;24.60;54.00;;;;;;4927008;28;90159;-59
2022/08/28 03:28:16;;;;;;;61.15;50.15;;;24.60;54.00;;;;;;4905474;28;90980;-57
2022/08/28 03:30:41;;;;;;;60.80;50.45;;;24.60;54.00;;;;;;4920117;28;91424;-56
2022/08/28 03:33:07;;;;;;;60.35;50.45;;;24.60;54.00;;;;;;4923101;28;91571;-59
2022/08/28 03:35:33;;;;;;;60.03;50.03;;;24.60;54.00;;;;;;4923622;28;91886;-59
2022/08/28 03:37:59;;;;;;;59.65;50.05;;;24.60;54.10;;;;;;4919129;28;90248;-58
2022/08/28 03:40:24;;;;;;;62.40;50.22;;;24.60;54.10;;;;;;4916877;28;90286;-59
2022/08/28 03:42:50;;;;;;;61.22;50.28;;;24.60;54.20;;;;;;4916789;28;91053;-59
2022/08/28 03:45:16;;;;;;;60.90;50.30;;;24.60;54.10;;;;;;4921900;28;90899;-59
2022/08/28 03:47:42;;;;;;;61.10;50.53;;;24.60;54.20;;;;;;4921706;28;91079;-59
2022/08/28 03:50:12;;;;;;;61.03;50.30;;;24.60;54.10;;;;;;4934489;28;93548;-59
2022/08/28 03:52:39;;;;;;;61.85;50.45;;;24.60;54.20;;;;;;4923310;28;91990;-58
2022/08/28 03:55:07;;;;;;;60.78;50.33;;;24.60;54.20;;;;;;4926744;28;91310;-59
2022/08/28 03:57:34;;;;;;;60.65;50.53;;;24.60;54.10;;;;;;4936519;28;92315;-59
2022/08/28 04:00:02;;;;;;;60.30;50.28;;;24.60;54.20;;;;;;4934712;28;93784;-59
2022/08/28 04:02:28;;;;;;;60.22;50.22;;;24.60;54.10;;;;;;4927975;28;90914;-58
2022/08/28 04:04:53;;;;;;;59.45;49.97;;;24.60;54.10;;;;;;4930482;28;90242;-60
2022/08/28 04:07:19;;;;;;;60.65;50.40;;;24.60;54.10;;;;;;4933595;28;90058;-60
2022/08/28 04:09:45;;;;;;;62.00;50.53;;;24.60;54.00;;;;;;4918455;28;90994;-59
2022/08/28 04:12:13;;;;;;;60.53;50.13;;;24.60;54.00;;;;;;4924718;28;92554;-58
2022/08/28 04:14:39;;;;;;;61.08;50.20;;;24.60;54.10;;;;;;4933851;28;90152;-59
2022/08/28 04:17:05;;;;;;;59.97;50.45;;;24.60;53.90;;;;;;4924085;28;89690;-59
2022/08/28 04:19:32;;;;;;;61.92;50.45;;;24.60;53.90;;;;;;4925985;28;93093;-59
2022/08/28 04:21:58;;;;;;;60.15;50.08;;;24.60;54.00;;;;;;4916753;28;89706;-59
2022/08/28 04:24:24;;;;;;;60.83;50.45;;;24.60;54.00;;;;;;4924410;28;92700;-59
2022/08/28 04:26:50;;;;;;;60.72;50.15;;;24.60;53.90;;;;;;4924351;28;90890;-58
2022/08/28 04:29:15;;;;;;;60.55;50.33;;;24.60;53.90;;;;;;4924984;28;89703;-58
2022/08/28 04:31:41;;;;;;;61.03;50.25;;;24.60;53.90;;;;;;4921893;28;89728;-59
2022/08/28 04:34:08;;;;;;;62.20;50.72;;;24.60;53.90;;;;;;4923283;28;91556;-58
2022/08/28 04:36:34;;;;;;;60.60;50.28;;;24.60;53.80;;;;;;4927197;28;90681;-57
2022/08/28 04:39:01;;;;;;;61.15;50.47;;;24.60;53.90;;;;;;4928662;28;89971;-59
2022/08/28 04:41:27;;;;;;;60.78;50.65;;;24.60;53.90;;;;;;4921192;28;91490;-59
2022/08/28 04:43:56;;;;;;;61.92;50.65;;;24.60;53.90;;;;;;4928268;28;91748;-58
2022/08/28 04:46:21;;;;;;;60.55;50.45;;;24.50;53.90;;;;;;4927908;28;93814;-59
2022/08/28 04:48:47;;;;;;;60.85;50.63;;;24.60;53.90;;;;;;4922039;28;91676;-59
2022/08/28 04:51:14;;;;;;;60.83;50.40;;;24.50;53.90;;;;;;4921600;28;90322;-59
2022/08/28 04:53:40;;;;;;;60.45;50.45;;;24.60;53.90;;;;;;4927266;28;95784;-58
2022/08/28 04:56:09;;;;;;;61.58;50.40;;;24.60;53.80;;;;;;4924608;28;90805;-61
2022/08/28 04:58:35;;;;;;;62.17;50.50;;;24.60;53.70;;;;;;4918995;28;90803;-57
2022/08/28 05:01:17;;;;;;;61.10;50.50;;;24.50;53.70;;;;;;4922470;28;95218;-58
2022/08/28 05:03:44;;;;;;;60.22;50.60;;;24.50;53.90;;;;;;4920343;28;90676;-59
2022/08/28 05:06:12;;;;;;;61.63;50.75;;;24.50;53.80;;;;;;4926299;28;94497;-58
2022/08/28 05:08:39;;;;;;;61.30;50.72;;;24.50;54.00;;;;;;4925457;28;90118;-59
2022/08/28 05:11:10;;;;;;;60.35;50.53;;;24.50;54.60;;;;;;4932671;28;90414;-58
2022/08/28 05:13:36;;;;;;;61.17;50.60;;;24.50;53.90;;;;;;4921056;28;91717;-60
2022/08/28 05:16:03;;;;;;;60.15;50.13;;;24.50;53.80;;;;;;4919328;28;92192;-59
2022/08/28 05:18:28;;;;;;;60.15;50.65;;;24.50;53.80;;;;;;4920021;28;91124;-59
2022/08/28 05:20:54;;;;;;;60.72;50.55;;;24.50;53.80;;;;;;4919216;28;91754;-57
2022/08/28 05:23:20;;;;;;;61.35;50.63;;;24.50;53.90;;;;;;4919160;28;90746;-59
2022/08/28 05:25:47;;;;;;;60.42;50.80;;;24.50;53.80;;;;;;4914256;28;90100;-59
2022/08/28 05:28:14;;;;;;;64.47;50.45;;;24.50;53.80;;;;;;4923049;28;90154;-59
2022/08/28 05:30:41;;;;;;;60.67;50.35;;;24.50;53.90;;;;;;4921851;28;89357;-57
2022/08/28 05:33:08;;;;;;;61.15;50.80;;;24.50;53.80;;;;;;4922735;28;94056;-58
2022/08/28 05:35:39;;;;;;;61.47;50.70;;;24.50;53.90;;;;;;4921257;28;93030;-57
2022/08/28 05:38:06;;;;;;;61.50;51.05;;;24.50;53.70;;;;;;4919938;28;90838;-59
2022/08/28 05:40:32;;;;;;;60.92;50.92;;;24.50;53.70;;;;;;4921294;28;92892;-59
2022/08/28 05:42:58;;;;;;;60.63;50.75;;;24.60;53.60;;;;;;4925709;28;90938;-57
2022/08/28 05:45:24;;;;;;;60.00;50.20;;;24.60;53.60;;;;;;4918705;28;92548;-59
2022/08/28 05:47:50;;;;;;;60.88;50.67;;;24.50;53.50;;;;;;4920799;28;92552;-58
2022/08/28 05:50:17;;;;;;;62.08;50.72;;;24.50;53.50;;;;;;4925132;28;91510;-57
2022/08/28 05:52:43;;;;;;;60.85;50.35;;;24.50;53.50;;;;;;4930903;28;91330;-57
2022/08/28 05:55:11;;;;;;;61.03;50.65;;;24.50;53.50;;;;;;4921503;28;89548;-59
2022/08/28 05:57:38;;;;;;;60.97;50.65;;;24.60;53.40;;;;;;4927010;28;93298;-59
2022/08/28 06:00:05;;;;;;;61.45;50.60;;;24.60;53.30;;;;;;4924225;28;90130;-59
2022/08/28 06:02:33;;;;;;;61.08;50.75;;;24.50;53.30;;;;;;4919717;28;90976;-58
2022/08/28 06:05:00;;;;;;;62.15;50.65;;;24.50;53.20;;;;;;4916648;28;90968;-55
2022/08/28 06:07:26;;;;;;;60.88;50.58;;;24.50;53.30;;;;;;4911317;28;91920;-59
2022/08/28 06:09:51;;;;;;;60.85;50.95;;;24.50;53.30;;;;;;4920632;28;90143;-59
2022/08/28 06:12:17;;;;;;;61.30;50.78;;;24.50;53.30;;;;;;4924132;28;91004;-57
2022/08/28 06:14:43;;;;;;;61.28;50.72;;;24.50;53.30;;;;;;4914371;28;91618;-58
2022/08/28 06:17:08;;;;;;;61.72;50.80;;;24.50;53.30;;;;;;4920283;28;95200;-57
2022/08/28 06:19:35;;;;;;;62.80;51.15;;;24.60;53.30;;;;;;4924346;28;88679;-59
2022/08/28 06:22:03;;;;;;;63.10;51.25;;;24.50;53.30;;;;;;4921523;28;89956;-60
2022/08/28 06:24:30;;;;;;;62.90;51.05;;;24.50;53.20;;;;;;4924431;28;89996;-58
2022/08/28 06:26:57;;;;;;;61.78;51.22;;;24.50;53.20;;;;;;4926376;28;91247;-58
2022/08/28 06:29:23;;;;;;;65.43;51.28;;;24.60;53.10;;;;;;4920236;28;92748;-58
2022/08/28 06:31:53;;;;;;;63.83;51.25;;;24.60;53.10;;;;;;4916902;28;90991;-59
2022/08/28 06:34:19;;;;;;;61.67;51.05;;;24.50;52.90;;;;;;4925319;28;90473;-59
2022/08/28 06:36:45;;;;;;;62.28;50.92;;;24.60;53.10;;;;;;4920192;28;91945;-59
2022/08/28 06:39:12;;;;;;;62.65;51.33;;;24.60;53.00;;;;;;4923188;28;91626;-57
2022/08/28 06:41:41;;;;;;;62.03;51.25;;;24.60;52.90;;;;;;4915039;28;90846;-55
2022/08/28 06:44:12;;;;;;;63.30;51.33;;;24.60;52.80;;;;;;4922551;28;92903;-59
2022/08/28 06:46:39;;;;;;;61.47;51.17;;;24.60;52.80;;;;;;4922175;28;90863;-59
2022/08/28 06:49:06;;;;;;;63.55;51.15;;;24.60;52.80;;;;;;4926196;28;89996;-59
2022/08/28 06:51:33;;;;;;;61.55;51.15;;;24.60;52.70;;;;;;4920697;28;91128;-58
2022/08/28 06:53:59;;;;;;;61.33;51.05;;;24.60;52.70;;;;;;4924439;28;90887;-58
2022/08/28 06:56:25;;;;;;;62.97;51.22;;;24.60;52.60;;;;;;4925124;28;93375;-58
2022/08/28 06:58:51;;;;;;;62.72;51.13;;;24.60;52.70;;;;;;4923131;28;89983;-59
2022/08/28 07:01:21;;;;;;;62.13;51.35;;;24.60;52.70;;;;;;4902914;28;93030;-59
2022/08/28 07:03:48;;;;;;;64.70;51.25;;;24.60;52.70;;;;;;4925093;28;94888;-58
2022/08/28 07:06:15;;;;;;;61.55;51.05;;;24.60;52.70;;;;;;4923625;28;89617;-58
2022/08/28 07:08:42;;;;;;;62.15;51.25;;;24.60;52.60;;;;;;4925699;28;89580;-57
2022/08/28 07:11:13;;;;;;;63.08;51.15;;;24.60;52.60;;;;;;4918954;28;95038;-57
2022/08/28 07:13:40;;;;;;;62.22;51.42;;;24.60;52.60;;;;;;4912720;28;90651;-58
2022/08/28 07:16:07;;;;;;;62.03;51.30;;;24.60;52.60;;;;;;4919594;28;91785;-57
2022/08/28 07:18:32;;;;;;;62.95;51.05;;;24.70;52.60;;;;;;4919952;28;90520;-59
2022/08/28 07:21:02;;;;;;;62.67;51.40;;;24.70;52.70;;;;;;4920701;28;94021;-56
2022/08/28 07:23:29;;;;;;;66.75;51.60;;;24.60;52.70;;;;;;4924124;28;90984;-57
2022/08/28 07:25:55;;;;;;;64.70;51.20;;;24.60;52.70;;;;;;4921093;28;90380;-59
2022/08/28 07:28:22;;;;;;;63.88;51.55;;;24.70;52.60;;;;;;4914996;28;90051;-58
2022/08/28 07:31:06;;;;;;;65.13;51.15;;;24.70;52.50;;;;;;4924826;28;91162;-59
2022/08/28 07:33:33;;;;;;;63.85;51.53;;;24.70;52.50;;;;;;4924796;28;90413;-59
2022/08/28 07:36:00;;;;;;;61.67;50.97;;;24.60;51.80;;;;;;4922753;28;90668;-58
2022/08/28 07:38:26;;;;;;;65.13;51.67;;;24.60;49.50;;;;;;4934079;28;89802;-56
2022/08/28 07:40:53;;;;;;;64.22;51.40;;;24.40;49.40;;;;;;4927765;28;92858;-59
2022/08/28 07:46:05;;;;;;;65.13;51.90;;;24.10;49.40;;;;;;4927988;28;90643;-58
2022/08/28 07:48:34;;;;;;;67.28;51.85;;;24.10;49.70;;;;;;4932580;28;91641;-59
2022/08/28 07:51:01;;;;;;;65.18;51.47;;;24.10;49.70;;;;;;4924283;28;95048;-57
2022/08/28 07:53:27;;;;;;;67.68;51.88;;;24.00;49.40;;;;;;4917945;28;90077;-58
2022/08/28 07:55:53;;;;;;;65.18;51.53;;;24.00;49.70;;;;;;4926156;28;89937;-58
2022/08/28 07:58:19;;;;;;;68.03;51.70;;;23.80;49.70;;;;;;4934318;28;89041;-58
2022/08/28 08:00:46;;;;;;;70.03;51.45;;;23.80;49.80;;;;;;4920033;28;91325;-58
2022/08/28 08:03:12;;;;;;;65.07;51.50;;;23.60;50.40;;;;;;4924224;28;91448;-59
2022/08/28 08:05:38;;;;;;;70.18;51.28;;;23.60;50.60;;;;;;4927213;28;91538;-58
2022/08/28 08:08:04;;;;;;;67.28;51.22;;;23.60;50.50;;;;;;4913372;28;92607;-57
2022/08/28 08:10:30;;;;;;;66.88;51.72;;;23.70;50.50;;;;;;4918503;28;92122;-58
2022/08/28 08:12:55;;;;;;;64.78;51.65;;;23.60;50.70;;;;;;4921153;28;90569;-56
2022/08/28 08:15:21;;;;;;;65.20;51.15;;;23.60;50.40;;;;;;4928876;28;94317;-57
2022/08/28 08:17:47;;;;;;;66.10;51.22;;;23.60;50.00;;;;;;4931301;28;89557;-56
2022/08/28 08:20:12;;;;;;;69.30;51.40;;;23.50;50.40;;;;;;4928580;28;90135;-57
2022/08/28 08:22:38;;;;;;;64.47;51.63;;;23.50;49.60;;;;;;4925378;28;89763;-56
2022/08/28 08:25:04;;;;;;;70.53;51.30;;;23.40;50.80;;;;;;4926867;28;90826;-56
2022/08/28 08:27:31;;;;;;;64.57;51.35;;;23.30;50.80;;;;;;4927419;28;89514;-57
2022/08/28 08:29:57;;;;;;;65.20;51.30;;;23.40;50.60;;;;;;4933376;28;91477;-57
2022/08/28 08:32:23;;;;;;;65.82;51.33;;;23.40;50.30;;;;;;4930458;28;91477;-54
2022/08/28 08:34:54;;;;;;;65.10;51.35;;;23.50;49.90;;;;;;4929884;28;89983;-57
2022/08/28 08:37:20;;;;;;;66.25;51.85;;;23.60;50.00;;;;;;4918994;28;94964;-56
2022/08/28 08:39:46;;;;;;;68.35;51.60;;;23.60;49.60;;;;;;4905533;28;91742;-56
2022/08/28 08:42:24;;;;;;;67.00;51.53;;;23.50;49.70;;;;;;4924668;28;90913;-58
2022/08/28 08:44:52;;;;;;;66.22;51.38;;;23.60;49.70;;;;;;4933992;28;91068;-56
2022/08/28 08:47:33;;;;;;;66.05;51.17;;;23.60;49.30;;;;;;4926365;28;90387;-58
2022/08/28 08:50:16;;;;;;;64.32;51.40;;;23.60;49.70;;;;;;4925909;28;90366;-56
2022/08/28 08:52:59;;;;;;;63.53;51.33;;;23.70;49.90;;;;;;4918167;28;90408;-58
2022/08/28 08:55:34;;;;;;;66.03;51.25;;;23.70;49.20;;;;;;4929858;28;90840;-57
2022/08/28 08:58:02;;;;;;;62.80;50.92;;;23.70;49.80;;;;;;4918703;28;90033;-57
2022/08/28 09:00:32;;;;;;;64.63;50.90;;;23.70;49.10;;;;;;4929409;28;90109;-57
2022/08/28 09:03:22;;;;;;;64.82;50.85;;;23.60;49.60;;;;;;4922280;28;89990;-54
2022/08/28 09:05:56;;;;;;;65.93;51.08;;;23.60;49.70;;;;;;4926474;28;93950;-56
2022/08/28 09:08:48;;;;;;;65.25;51.50;;;23.60;50.40;;;;;;4914320;28;90974;-57
2022/08/28 09:11:44;;;;;;;66.15;50.92;;;23.90;50.40;;;;;;4917041;28;92681;-56
2022/08/28 09:14:37;;;;;;;65.25;51.28;;;23.90;49.70;;;;;;4929839;28;89888;-57
2022/08/28 09:17:05;;;;;;;67.30;51.08;;;23.90;48.40;;;;;;4911384;28;93668;-56
2022/08/28 09:19:31;;;;;;;63.70;50.92;;;23.70;49.60;;;;;;4927364;28;90380;-56
2022/08/28 09:21:57;;;;;;;65.82;51.25;;;23.70;49.90;;;;;;4911977;28;93558;-56
2022/08/28 09:24:31;;;;;;;64.78;51.10;;;23.60;49.70;;;;;;4923767;28;92661;-57
2022/08/28 09:27:07;;;;;;;68.70;51.22;;;23.60;48.90;;;;;;4922074;28;90335;-55
2022/08/28 09:29:37;;;;;;;63.50;50.83;;;23.50;49.40;;;;;;4924349;28;91024;-57
2022/08/28 09:32:22;;;;;;;65.72;51.10;;;23.50;49.10;;;;;;4921904;28;90122;-57
2022/08/28 09:35:26;;;;;;;63.85;50.95;;;23.60;49.30;;;;;;4916727;28;91123;-55
2022/08/28 09:37:53;;;;;;;65.15;50.63;;;23.70;47.00;;;;;;4928617;28;90332;-57
2022/08/28 09:40:18;;;;;;;69.60;51.13;;;23.70;48.20;;;;;;4927784;28;89871;-57
2022/08/28 09:43:25;;;;;;;64.35;51.00;;;23.70;49.00;;;;;;4923266;28;90053;-57
2022/08/28 09:46:02;;;;;;;64.05;50.97;;;23.80;48.90;;;;;;4932062;28;91152;-55
2022/08/28 09:48:36;;;;;;;62.60;51.17;;;23.90;47.90;;;;;;4919039;28;90832;-55
2022/08/28 09:51:06;;;;;;;66.03;51.13;;;23.80;48.80;;;;;;4925942;28;92640;-58
2022/08/28 09:53:37;;;;;;;64.20;50.60;;;23.90;47.80;;;;;;4932178;28;90682;-57
2022/08/28 09:56:21;;;;;;;62.22;50.97;;;23.90;48.70;;;;;;4921712;28;89854;-57
2022/08/28 09:58:58;;;;;;;65.45;50.50;;;24.00;48.50;;;;;;4919174;28;90545;-57
2022/08/28 10:01:42;;;;;;;64.20;50.92;;;24.00;47.70;;;;;;4932815;28;90516;-56
2022/08/28 10:04:16;;;;;;;62.72;50.65;;;24.00;46.10;;;;;;4919226;28;90630;-52
2022/08/28 10:07:11;;;;;;;65.10;50.83;;;24.00;47.50;;;;;;4926204;28;89916;-57
2022/08/28 10:09:42;;;;;;;65.10;50.75;;;24.00;46.70;;;;;;4926857;28;92654;-56
2022/08/28 10:12:59;;;;;;;64.93;50.78;;;23.90;47.50;;;;;;4923719;28;91308;-56
2022/08/28 10:15:49;;;;;;;62.85;50.85;;;23.90;46.90;;;;;;4938134;28;91684;-56
2022/08/28 10:18:23;;;;;;;63.20;50.75;;;23.90;47.00;;;;;;4943237;28;91232;-57
2022/08/28 10:20:57;;;;;;;62.72;50.65;;;24.00;47.10;;;;;;4927134;28;91504;-56
2022/08/28 10:23:47;;;;;;;65.68;51.72;;;23.90;46.90;;;;;;4913414;28;90225;-55
2022/08/28 10:26:19;;;;;;;63.50;50.83;;;24.00;46.30;;;;;;4913837;28;90483;-55
2022/08/28 10:28:47;;;;;;;64.13;50.78;;;24.10;46.50;;;;;;4919212;28;93889;-57
2022/08/28 10:31:35;;;;;;;65.20;51.35;;;24.10;45.80;;;;;;4915219;28;92414;-57
2022/08/28 10:34:26;;;;;;;63.50;50.92;;;24.10;45.50;;;;;;4929672;28;88984;-56
2022/08/28 10:37:20;;;;;;;63.25;51.33;;;24.10;46.00;;;;;;4913690;28;90492;-57
2022/08/28 10:39:55;;;;;;;65.18;51.40;;;24.20;45.90;;;;;;4922472;28;94970;-56
2022/08/28 10:42:36;;;;;;;62.35;50.95;;;24.20;45.40;;;;;;4922441;28;93132;-56
2022/08/28 10:45:07;;;;;;;64.57;50.70;;;24.30;45.50;;;;;;4928116;28;90406;-57
2022/08/28 10:47:36;;;;;;;66.03;50.92;;;24.20;45.00;;;;;;4929323;28;90180;-58
2022/08/28 10:50:14;;;;;;;63.92;50.65;;;24.20;46.30;;;;;;4920761;28;90759;-57
2022/08/28 10:52:52;;;;;;;63.97;51.35;;;24.30;46.00;;;;;;4923082;28;89652;-57
2022/08/28 10:55:40;;;;;;;66.07;51.13;;;24.40;45.60;;;;;;4919880;28;97135;-56
2022/08/28 10:58:08;;;;;;;63.55;50.85;;;24.40;45.80;;;;;;4918078;28;92700;-57
2022/08/28 11:00:36;;;;;;;64.85;51.20;;;24.50;44.80;;;;;;4925777;28;89656;-56
2022/08/28 11:03:12;;;;;;;63.42;51.08;;;24.50;44.90;;;;;;4927688;28;89843;-57
2022/08/28 11:06:07;;;;;;;64.13;51.08;;;24.40;45.50;;;;;;4928126;28;89497;-57
2022/08/28 11:08:35;;;;;;;68.25;51.10;;;24.40;45.50;;;;;;4930766;28;93815;-57
2022/08/28 11:11:05;;;;;;;62.80;51.03;;;24.50;45.40;;;;;;4913933;28;92160;-55
2022/08/28 11:13:39;;;;;;;66.28;51.25;;;24.50;45.30;;;;;;4918616;28;89965;-57
2022/08/28 11:16:31;;;;;;;65.05;51.05;;;24.50;43.70;;;;;;4924266;28;89836;-56
2022/08/28 11:19:42;;;;;;;63.40;50.80;;;24.40;43.90;;;;;;4918951;28;91921;-58
2022/08/28 11:22:27;;;;;;;64.82;51.53;;;24.40;45.00;;;;;;4910333;28;90536;-56
2022/08/28 11:25:02;;;;;;;63.92;51.47;;;24.60;45.00;;;;;;4923392;28;89793;-57
2022/08/28 11:27:34;;;;;;;63.95;51.92;;;24.60;44.40;;;;;;4928364;28;89387;-58
2022/08/28 11:30:08;;;;;;;63.10;51.47;;;24.70;44.80;;;;;;4931302;28;90501;-57
2022/08/28 11:32:33;;;;;;;63.65;51.60;;;24.80;44.10;;;;;;4934752;28;89864;-58
2022/08/28 11:35:21;;;;;;;65.07;51.30;;;24.70;44.10;;;;;;4931459;28;93013;-57
2022/08/28 11:37:53;;;;;;;65.38;51.58;;;24.80;43.70;;;;;;4922323;28;89881;-56
2022/08/28 11:40:31;;;;;;;63.17;51.22;;;24.90;43.50;;;;;;4923489;28;90626;-55
2022/08/28 11:43:14;;;;;;;66.07;51.53;;;24.90;43.60;;;;;;4923320;28;90090;-57
2022/08/28 11:45:45;;;;;;;66.85;51.63;;;24.90;43.60;;;;;;4934451;28;90971;-56
2022/08/28 11:48:34;;;;;;;65.97;51.75;;;25.00;43.20;;;;;;4923864;28;90061;-53
2022/08/28 11:51:06;;;;;;;63.22;51.40;;;25.00;43.30;;;;;;4925510;28;92202;-54
2022/08/28 11:53:46;;;;;;;63.53;51.30;;;25.00;43.60;;;;;;4926283;28;91271;-57
2022/08/28 11:56:27;;;;;;;63.25;51.25;;;25.00;43.30;;;;;;4914040;28;91589;-57
2022/08/28 11:59:20;;;;;;;66.70;51.37;;;25.00;43.90;;;;;;4921763;28;90038;-56
2022/08/28 12:01:46;;;;;;;67.55;51.50;;;25.00;43.20;;;;;;4920463;28;92018;-57
2022/08/28 12:04:21;;;;;;;64.50;51.63;;;25.00;43.50;;;;;;4926212;28;90895;-57
2022/08/28 12:06:51;;;;;;;63.65;51.33;;;25.00;44.00;;;;;;4929638;28;90120;-57
2022/08/28 12:09:17;;;;;;;69.13;52.60;;;25.10;44.40;;;;;;4922998;28;91603;-57
2022/08/28 12:11:43;;;;;;;67.60;51.80;;;25.20;43.40;;;;;;4917496;28;95101;-57
2022/08/28 12:14:24;;;;;;;64.53;51.55;;;25.20;43.40;;;;;;4919745;28;90926;-56
2022/08/28 12:17:02;;;;;;;64.78;51.75;;;25.20;44.10;;;;;;4921529;28;91395;-55
2022/08/28 12:19:42;;;;;;;67.30;51.80;;;25.30;43.20;;;;;;4920785;28;89197;-57
2022/08/28 12:22:14;;;;;;;64.97;51.80;;;25.20;43.50;;;;;;4921972;28;91557;-57
2022/08/28 12:24:45;;;;;;;69.38;51.70;;;25.30;44.00;;;;;;4922440;28;90799;-58
2022/08/28 12:27:12;;;;;;;67.80;51.65;;;25.40;43.20;;;;;;4930240;28;91537;-58
2022/08/28 12:29:50;;;;;;;64.78;51.60;;;25.40;43.90;;;;;;4928142;28;90193;-55
2022/08/28 12:32:19;;;;;;;65.93;51.30;;;25.40;43.70;;;;;;4933477;28;89799;-57
2022/08/28 12:34:57;;;;;;;66.90;51.47;;;25.50;44.30;;;;;;4929922;28;90435;-60
2022/08/28 12:37:28;;;;;;;64.88;51.65;;;25.50;44.20;;;;;;4930698;28;91514;-55
2022/08/28 12:39:57;;;;;;;65.28;51.53;;;25.60;44.30;;;;;;4929604;28;89817;-57
2022/08/28 12:42:30;;;;;;;65.70;51.53;;;25.60;42.80;;;;;;4929686;28;91778;-58
2022/08/28 12:45:02;;;;;;;64.90;51.33;;;25.60;43.90;;;;;;4927414;28;95563;-58
2022/08/28 12:47:28;;;;;;;65.45;51.47;;;25.60;44.70;;;;;;4923313;28;92555;-58
2022/08/28 12:49:54;;;;;;;63.72;51.53;;;25.60;44.90;;;;;;4926142;28;90816;-58
2022/08/28 12:52:23;;;;;;;66.45;51.55;;;25.60;42.80;;;;;;4921170;28;92268;-56